Time;durP1;ratioP1;P1;durP2;ratioP2;P2;SDS_P1;SDS_P2;PMS_P1;PMS_P2;Temp;Humidity;BMP_temperature;BMP_pressure;BME280_temperature;BME280_humidity;BME280_pressure;Samples;Min_cycle;Max_cycle;Signal;HPM_P1;HPM_P2
2022/01/25 00:10:12;;;;;;;20.67;14.48;;;;;;;;;;5112631;28;20119;-80
2022/01/25 00:16:00;;;;;;;19.55;13.95;;;;;;;;;;5113265;28;19919;-79
2022/01/25 00:26:29;;;;;;;18.27;13.67;;;;;;;;;;5113738;28;20360;-80
2022/01/25 00:29:27;;;;;;;19.95;13.88;;;;;;;;;;5095164;28;20039;-78
2022/01/25 00:31:53;;;;;;;17.90;13.95;;;;;;;;;;5113666;28;20117;-80
2022/01/25 00:34:19;;;;;;;17.45;13.45;;;;;;;;;;5113247;28;20424;-80
2022/01/25 00:36:45;;;;;;;19.25;13.57;;;;;;;;;;5113494;28;20465;-79
2022/01/25 00:39:11;;;;;;;17.00;13.40;;;;;;;;;;5113659;28;20030;-81
2022/01/25 00:41:37;;;;;;;19.67;13.98;;;;;;;;;;5113200;28;20479;-81
2022/01/25 00:44:05;;;;;;;18.98;14.40;;;;;;;;;;5113005;28;20399;-78
2022/01/25 00:46:31;;;;;;;18.95;14.07;;;;;;;;;;5092667;28;20032;-78
2022/01/25 00:48:59;;;;;;;18.98;14.20;;;;;;;;;;5092861;28;20063;-78
2022/01/25 00:54:04;;;;;;;20.73;14.43;;;;;;;;;;5105528;28;20039;-73
2022/01/25 00:56:35;;;;;;;19.90;14.07;;;;;;;;;;5112790;28;20399;-74
2022/01/25 00:59:02;;;;;;;18.90;14.18;;;;;;;;;;5113064;28;20027;-73
2022/01/25 01:01:28;;;;;;;17.58;13.45;;;;;;;;;;5094448;28;20392;-80
2022/01/25 01:03:55;;;;;;;17.98;13.43;;;;;;;;;;5094549;28;20023;-80
2022/01/25 01:06:21;;;;;;;19.08;14.52;;;;;;;;;;5112701;28;20486;-79
2022/01/25 01:08:47;;;;;;;18.95;13.65;;;;;;;;;;5112942;28;20039;-80
2022/01/25 01:11:20;;;;;;;24.58;15.00;;;;;;;;;;5113086;28;20035;-78
2022/01/25 01:29:54;;;;;;;17.60;13.13;;;;;;;;;;5112565;28;20119;-78
2022/01/25 01:33:06;;;;;;;18.65;13.25;;;;;;;;;;5112256;28;20024;-77
2022/01/25 01:48:01;;;;;;;17.95;13.27;;;;;;;;;;5112009;28;20503;-78
2022/01/25 01:50:30;;;;;;;19.17;14.43;;;;;;;;;;5111928;28;20429;-78
2022/01/25 01:52:56;;;;;;;19.65;14.88;;;;;;;;;;5111777;28;20090;-77
2022/01/25 01:55:23;;;;;;;20.33;15.05;;;;;;;;;;5111876;28;20020;-75
2022/01/25 01:57:49;;;;;;;22.05;15.35;;;;;;;;;;5112020;28;20088;-75
2022/01/25 02:00:17;;;;;;;19.45;14.48;;;;;;;;;;5111555;28;20024;-74
2022/01/25 02:02:43;;;;;;;18.58;13.32;;;;;;;;;;5112318;28;20024;-80
2022/01/25 02:05:09;;;;;;;20.45;15.25;;;;;;;;;;5112157;28;20103;-79
2022/01/25 02:07:35;;;;;;;20.52;15.23;;;;;;;;;;5111496;28;20081;-78
2022/01/25 02:10:01;;;;;;;17.23;14.10;;;;;;;;;;5111772;28;20036;-79
2022/01/25 02:12:28;;;;;;;18.63;13.48;;;;;;;;;;5111628;28;20030;-77
2022/01/25 02:14:55;;;;;;;19.08;14.35;;;;;;;;;;5111352;28;20027;-79
2022/01/25 02:22:55;;;;;;;17.88;13.02;;;;;;;;;;5111636;28;20043;-73
2022/01/25 02:25:22;;;;;;;19.02;14.40;;;;;;;;;;5111291;28;20020;-75
2022/01/25 02:27:48;;;;;;;19.20;13.82;;;;;;;;;;5111636;28;20463;-79
2022/01/25 02:30:14;;;;;;;20.15;15.57;;;;;;;;;;5093181;28;20039;-74
2022/01/25 02:32:40;;;;;;;20.55;14.50;;;;;;;;;;5113180;28;20028;-76
2022/01/25 02:35:07;;;;;;;18.42;13.57;;;;;;;;;;5115859;28;20433;-74
2022/01/25 02:37:33;;;;;;;21.08;14.43;;;;;;;;;;5115535;28;20483;-74
2022/01/25 02:39:59;;;;;;;18.10;13.52;;;;;;;;;;5097381;28;20016;-77
2022/01/25 02:42:26;;;;;;;21.83;14.93;;;;;;;;;;5115585;28;20027;-74
2022/01/25 02:44:52;;;;;;;18.45;14.40;;;;;;;;;;5115036;28;20016;-74
2022/01/25 02:50:05;;;;;;;19.50;14.65;;;;;;;;;;5115528;28;20034;-74
2022/01/25 02:52:31;;;;;;;18.77;14.65;;;;;;;;;;5115242;28;20072;-73
2022/01/25 02:54:57;;;;;;;19.00;13.63;;;;;;;;;;5115354;28;20032;-79
2022/01/25 02:57:23;;;;;;;19.10;14.40;;;;;;;;;;5115434;28;20046;-81
2022/01/25 02:59:50;;;;;;;18.92;14.32;;;;;;;;;;5115574;28;20080;-77
2022/01/25 03:02:16;;;;;;;19.65;14.32;;;;;;;;;;5115120;28;20521;-80
2022/01/25 03:04:43;;;;;;;20.95;15.15;;;;;;;;;;5115649;28;20023;-77
2022/01/25 03:07:09;;;;;;;19.27;14.80;;;;;;;;;;5115423;28;20023;-79
2022/01/25 03:09:36;;;;;;;18.60;14.30;;;;;;;;;;5114862;28;20487;-77
2022/01/25 03:12:05;;;;;;;20.48;14.25;;;;;;;;;;5115104;28;20186;-77
2022/01/25 03:14:33;;;;;;;19.40;15.00;;;;;;;;;;5114370;28;20043;-78
2022/01/25 03:22:04;;;;;;;;;;;;;;;;;;5115120;28;20020;-73
2022/01/25 03:24:30;;;;;;;20.98;15.35;;;;;;;;;;5114583;28;19904;-78
2022/01/25 03:26:56;;;;;;;19.58;14.63;;;;;;;;;;5114770;28;20479;-79
2022/01/25 03:29:22;;;;;;;19.38;14.20;;;;;;;;;;5114528;28;20039;-78
2022/01/25 03:31:48;;;;;;;20.35;14.60;;;;;;;;;;5114642;28;20019;-77
2022/01/25 03:34:14;;;;;;;21.42;15.40;;;;;;;;;;5114417;28;20074;-75
2022/01/25 03:36:42;;;;;;;18.92;14.90;;;;;;;;;;5114961;28;20016;-78
2022/01/25 03:39:08;;;;;;;21.08;15.32;;;;;;;;;;5114674;28;20072;-79
2022/01/25 03:41:35;;;;;;;19.63;15.32;;;;;;;;;;5114358;28;20407;-76
2022/01/25 03:44:01;;;;;;;19.05;15.13;;;;;;;;;;5113796;28;20038;-77
2022/01/25 03:46:39;;;;;;;22.50;14.68;;;;;;;;;;5095727;28;20027;-75
2022/01/25 03:51:50;;;;;;;22.48;16.30;;;;;;;;;;5114304;28;20039;-77
2022/01/25 03:54:17;;;;;;;20.27;15.98;;;;;;;;;;5113469;28;20028;-75
2022/01/25 03:56:43;;;;;;;18.83;14.52;;;;;;;;;;5114579;28;20027;-75
2022/01/25 03:59:09;;;;;;;18.83;15.07;;;;;;;;;;5114639;28;20019;-74
2022/01/25 04:01:36;;;;;;;18.00;14.00;;;;;;;;;;5113946;28;20024;-74
2022/01/25 04:04:07;;;;;;;19.58;14.27;;;;;;;;;;5113991;28;20141;-75
2022/01/25 04:06:36;;;;;;;21.08;15.30;;;;;;;;;;5113873;28;20524;-73
2022/01/25 04:09:03;;;;;;;20.02;15.45;;;;;;;;;;5113951;28;20028;-74
2022/01/25 04:11:29;;;;;;;19.17;14.93;;;;;;;;;;5113804;28;20062;-75
2022/01/25 04:13:57;;;;;;;20.15;14.30;;;;;;;;;;5113640;28;20042;-74
2022/01/25 04:16:29;;;;;;;19.55;15.38;;;;;;;;;;5094996;28;20471;-75
2022/01/25 04:26:59;;;;;;;20.30;14.73;;;;;;;;;;5079124;28;20069;-73
2022/01/25 04:29:26;;;;;;;19.67;14.95;;;;;;;;;;5113285;28;20041;-75
2022/01/25 04:31:52;;;;;;;19.33;14.50;;;;;;;;;;5113635;28;20023;-73
2022/01/25 04:56:02;;;;;;;22.15;16.30;;;;;;;;;;5106422;28;20038;-75
2022/01/25 04:58:40;;;;;;;20.65;14.98;;;;;;;;;;5112939;28;20051;-75
2022/01/25 05:01:06;;;;;;;19.35;15.38;;;;;;;;;;5113055;28;20034;-75
2022/01/25 05:03:52;;;;;;;20.33;15.15;;;;;;;;;;5094426;28;20024;-76
2022/01/25 05:06:19;;;;;;;20.10;14.65;;;;;;;;;;5112709;28;20034;-75
2022/01/25 05:08:50;;;;;;;19.50;15.13;;;;;;;;;;5112783;28;20398;-74
2022/01/25 05:11:32;;;;;;;19.58;15.15;;;;;;;;;;5112669;28;20046;-76
2022/01/25 05:16:34;;;;;;;25.00;16.20;;;;;;;;;;5112637;28;20043;-74
2022/01/25 05:19:21;;;;;;;19.83;15.65;;;;;;;;;;5112642;28;20022;-74
2022/01/25 05:22:19;;;;;;;19.30;14.95;;;;;;;;;;5112615;28;20026;-77
2022/01/25 05:24:46;;;;;;;20.65;15.60;;;;;;;;;;5112630;28;20077;-74
2022/01/25 05:27:13;;;;;;;19.88;15.82;;;;;;;;;;5112644;28;20103;-77
2022/01/25 05:29:40;;;;;;;20.08;15.20;;;;;;;;;;5094473;28;20036;-76
2022/01/25 05:32:06;;;;;;;19.70;15.20;;;;;;;;;;5112372;28;20038;-77
2022/01/25 05:34:33;;;;;;;19.30;15.60;;;;;;;;;;5112119;28;20059;-76
2022/01/25 05:36:59;;;;;;;19.25;15.45;;;;;;;;;;5112292;28;20027;-73
2022/01/25 05:39:30;;;;;;;21.27;16.27;;;;;;;;;;5112072;28;20468;-74
2022/01/25 05:47:18;;;;;;;18.40;14.63;;;;;;;;;;5111900;28;20058;-74
2022/01/25 05:49:45;;;;;;;20.50;15.40;;;;;;;;;;5112541;28;20115;-74
2022/01/25 05:52:11;;;;;;;18.27;15.07;;;;;;;;;;5112139;28;20020;-76
2022/01/25 05:54:38;;;;;;;19.55;15.38;;;;;;;;;;5111819;28;20106;-73
2022/01/25 05:57:05;;;;;;;20.92;15.63;;;;;;;;;;5111939;28;20055;-76
2022/01/25 05:59:31;;;;;;;19.38;14.45;;;;;;;;;;5111689;28;20023;-75
2022/01/25 06:01:57;;;;;;;20.00;14.95;;;;;;;;;;5110977;28;20023;-75
2022/01/25 06:04:23;;;;;;;20.15;15.10;;;;;;;;;;5111412;28;20028;-77
2022/01/25 06:06:50;;;;;;;21.58;14.52;;;;;;;;;;5092813;28;20039;-75
2022/01/25 06:09:16;;;;;;;19.60;14.73;;;;;;;;;;5111451;28;20032;-74
2022/01/25 06:11:42;;;;;;;19.55;13.95;;;;;;;;;;5111964;28;20098;-74
2022/01/25 06:14:08;;;;;;;19.98;15.60;;;;;;;;;;5111466;28;20020;-74
2022/01/25 06:16:34;;;;;;;21.13;14.50;;;;;;;;;;5111564;28;20531;-73
2022/01/25 06:19:00;;;;;;;19.52;14.13;;;;;;;;;;5111671;28;20069;-75
2022/01/25 06:21:27;;;;;;;18.25;14.20;;;;;;;;;;5111428;28;20445;-74
2022/01/25 06:23:53;;;;;;;18.83;15.25;;;;;;;;;;5111601;28;20019;-74
2022/01/25 06:26:19;;;;;;;18.35;14.50;;;;;;;;;;5111391;28;20050;-76
2022/01/25 06:28:45;;;;;;;23.40;15.07;;;;;;;;;;5093371;28;20036;-74
2022/01/25 06:31:12;;;;;;;20.05;14.52;;;;;;;;;;5111220;28;20471;-78
2022/01/25 06:33:41;;;;;;;18.85;13.90;;;;;;;;;;5111445;28;20028;-76
2022/01/25 06:36:08;;;;;;;20.05;14.98;;;;;;;;;;5111610;28;20395;-75
2022/01/25 06:38:34;;;;;;;19.70;14.07;;;;;;;;;;5111054;28;20522;-76
2022/01/25 06:41:00;;;;;;;19.17;13.85;;;;;;;;;;5111523;28;20108;-74
2022/01/25 06:43:26;;;;;;;21.05;15.48;;;;;;;;;;5110993;28;20019;-78
2022/01/25 06:46:00;;;;;;;19.63;14.65;;;;;;;;;;5111449;28;20027;-77
2022/01/25 06:48:26;;;;;;;19.38;14.40;;;;;;;;;;5092709;28;20019;-77
2022/01/25 06:50:52;;;;;;;20.75;15.40;;;;;;;;;;5111041;28;20467;-74
2022/01/25 06:53:18;;;;;;;22.50;14.48;;;;;;;;;;5111230;28;20012;-74
2022/01/25 06:55:44;;;;;;;19.42;15.23;;;;;;;;;;5111497;28;20027;-74
2022/01/25 06:58:10;;;;;;;21.38;14.32;;;;;;;;;;5111585;28;20035;-75
2022/01/25 07:00:36;;;;;;;17.73;13.95;;;;;;;;;;5110761;28;20096;-75
2022/01/25 07:03:03;;;;;;;17.77;14.13;;;;;;;;;;5111639;28;20024;-77
2022/01/25 07:05:30;;;;;;;17.50;13.45;;;;;;;;;;5092630;28;20468;-74
2022/01/25 07:07:56;;;;;;;21.05;15.40;;;;;;;;;;5111287;28;20471;-74
2022/01/25 07:10:24;;;;;;;22.13;14.80;;;;;;;;;;5110349;28;20034;-74
2022/01/25 07:12:50;;;;;;;19.67;14.65;;;;;;;;;;5110895;28;20031;-74
2022/01/25 07:15:17;;;;;;;17.58;14.05;;;;;;;;;;5110944;28;20464;-75
2022/01/25 07:17:43;;;;;;;19.30;14.00;;;;;;;;;;5111494;28;20023;-74
2022/01/25 07:20:10;;;;;;;17.55;14.05;;;;;;;;;;5114952;28;20522;-73
2022/01/25 07:22:36;;;;;;;20.17;14.57;;;;;;;;;;5096195;28;20028;-75
2022/01/25 07:25:04;;;;;;;18.05;14.32;;;;;;;;;;5114509;28;20027;-73
2022/01/25 07:27:30;;;;;;;18.13;14.52;;;;;;;;;;5113472;28;20028;-75
2022/01/25 07:29:56;;;;;;;19.25;14.60;;;;;;;;;;5112707;28;20035;-80
2022/01/25 07:32:22;;;;;;;19.50;15.15;;;;;;;;;;5112863;28;20020;-80
2022/01/25 07:34:48;;;;;;;34.00;14.93;;;;;;;;;;5114441;28;20034;-79
2022/01/25 07:37:14;;;;;;;20.95;14.88;;;;;;;;;;5114328;28;20035;-77
2022/01/25 07:39:42;;;;;;;18.63;15.18;;;;;;;;;;5114182;28;20020;-80
2022/01/25 07:42:09;;;;;;;20.63;15.20;;;;;;;;;;5114695;28;20024;-80
2022/01/25 07:44:37;;;;;;;18.83;14.85;;;;;;;;;;5113727;28;20059;-79
2022/01/25 07:47:03;;;;;;;19.30;14.70;;;;;;;;;;5115040;28;20102;-81
2022/01/25 07:49:30;;;;;;;26.25;15.35;;;;;;;;;;5115248;28;20122;-81
2022/01/25 07:51:56;;;;;;;25.17;17.58;;;;;;;;;;5114341;28;20027;-74
2022/01/25 07:54:22;;;;;;;25.83;17.45;;;;;;;;;;5114061;28;20098;-79
2022/01/25 07:56:48;;;;;;;26.13;17.48;;;;;;;;;;5114353;28;20027;-76
2022/01/25 07:59:14;;;;;;;27.15;18.05;;;;;;;;;;5112754;28;20085;-75
2022/01/25 08:01:41;;;;;;;27.20;18.40;;;;;;;;;;5114014;28;20076;-82
2022/01/25 08:04:08;;;;;;;27.17;17.13;;;;;;;;;;5112461;28;20032;-81
2022/01/25 08:06:35;;;;;;;25.58;17.45;;;;;;;;;;5112071;28;20018;-78
2022/01/25 08:09:01;;;;;;;23.13;17.98;;;;;;;;;;5111839;28;20035;-73
2022/01/25 08:11:28;;;;;;;23.50;16.90;;;;;;;;;;5114527;27;20108;-72
2022/01/25 08:14:00;;;;;;;25.77;17.63;;;;;;;;;;5114030;28;20031;-73
2022/01/25 08:16:26;;;;;;;23.80;16.83;;;;;;;;;;5113785;28;20031;-80
2022/01/25 08:18:52;;;;;;;28.27;17.67;;;;;;;;;;5113767;28;20027;-78
2022/01/25 08:21:19;;;;;;;21.42;16.85;;;;;;;;;;5113527;28;20024;-72
2022/01/25 08:23:45;;;;;;;25.35;17.42;;;;;;;;;;5113777;28;20024;-80
2022/01/25 08:26:11;;;;;;;22.55;17.30;;;;;;;;;;5113803;28;20544;-72
2022/01/25 08:28:37;;;;;;;23.50;16.90;;;;;;;;;;5113411;28;20027;-83
2022/01/25 08:31:03;;;;;;;25.27;17.48;;;;;;;;;;5093953;28;20085;-76
2022/01/25 08:33:29;;;;;;;24.55;17.52;;;;;;;;;;5113143;28;20026;-78
2022/01/25 08:35:55;;;;;;;23.02;17.10;;;;;;;;;;5113509;28;20413;-75
2022/01/25 08:38:21;;;;;;;25.90;17.50;;;;;;;;;;5113211;28;20496;-82
2022/01/25 08:40:47;;;;;;;21.00;16.17;;;;;;;;;;5113418;28;20020;-76
2022/01/25 08:43:13;;;;;;;25.25;17.92;;;;;;;;;;5113576;28;20034;-77
2022/01/25 08:45:39;;;;;;;22.23;17.35;;;;;;;;;;5113554;28;20058;-82
2022/01/25 08:48:05;;;;;;;22.50;17.67;;;;;;;;;;5113272;28;20027;-77
2022/01/25 08:50:31;;;;;;;25.05;17.55;;;;;;;;;;5113041;28;20028;-72
2022/01/25 08:52:58;;;;;;;26.83;18.73;;;;;;;;;;5094796;28;20031;-74
2022/01/25 08:55:25;;;;;;;23.42;18.48;;;;;;;;;;5112920;28;20474;-76
2022/01/25 08:57:52;;;;;;;24.23;17.98;;;;;;;;;;5113114;28;20126;-76
2022/01/25 09:00:18;;;;;;;22.90;16.98;;;;;;;;;;5112487;28;20024;-74
2022/01/25 09:02:44;;;;;;;24.83;17.73;;;;;;;;;;5112742;28;20027;-75
2022/01/25 09:05:10;;;;;;;26.70;18.73;;;;;;;;;;5113575;28;20026;-78
2022/01/25 09:07:37;;;;;;;23.73;18.05;;;;;;;;;;5115507;28;20045;-71
2022/01/25 09:10:03;;;;;;;25.17;18.05;;;;;;;;;;5116934;28;20028;-78
2022/01/25 09:12:29;;;;;;;24.83;17.63;;;;;;;;;;5112648;28;20027;-72
2022/01/25 09:14:55;;;;;;;24.52;18.85;;;;;;;;;;5094539;28;20051;-75
2022/01/25 09:17:21;;;;;;;30.33;19.25;;;;;;;;;;5112563;28;20024;-73
2022/01/25 09:19:48;;;;;;;27.00;19.52;;;;;;;;;;5112666;28;20411;-76
2022/01/25 09:22:14;;;;;;;23.65;17.92;;;;;;;;;;5112847;28;20483;-73
2022/01/25 09:24:40;;;;;;;25.85;18.73;;;;;;;;;;5112813;28;20030;-72
2022/01/25 09:27:08;;;;;;;24.80;19.05;;;;;;;;;;5111971;28;20028;-72
2022/01/25 09:29:34;;;;;;;25.00;17.85;;;;;;;;;;5111772;28;20032;-72
2022/01/25 09:32:00;;;;;;;25.10;17.30;;;;;;;;;;5112484;28;20081;-74
2022/01/25 09:34:27;;;;;;;23.52;17.17;;;;;;;;;;5112134;28;20024;-74
2022/01/25 09:36:53;;;;;;;25.23;17.90;;;;;;;;;;5112625;28;20371;-71
2022/01/25 09:39:21;;;;;;;25.00;17.58;;;;;;;;;;5111457;28;20114;-75
2022/01/25 09:41:47;;;;;;;28.35;17.77;;;;;;;;;;5112136;28;20023;-75
2022/01/25 09:44:15;;;;;;;24.02;17.63;;;;;;;;;;5112404;28;20036;-72
2022/01/25 09:46:43;;;;;;;25.92;17.60;;;;;;;;;;5112469;28;20403;-72
2022/01/25 09:49:09;;;;;;;24.02;17.20;;;;;;;;;;5093818;28;20039;-76
2022/01/25 09:51:36;;;;;;;23.17;18.42;;;;;;;;;;5111858;28;20038;-75
2022/01/25 09:54:02;;;;;;;25.55;18.17;;;;;;;;;;5112091;28;20024;-74
2022/01/25 09:56:28;;;;;;;27.05;19.33;;;;;;;;;;5093466;28;20581;-72
2022/01/25 09:58:54;;;;;;;23.25;17.45;;;;;;;;;;5111659;28;20019;-73
2022/01/25 10:01:27;;;;;;;25.40;17.13;;;;;;;;;;5111728;28;20027;-72
2022/01/25 10:03:53;;;;;;;24.35;17.15;;;;;;;;;;5111993;28;20028;-71
2022/01/25 10:06:21;;;;;;;25.20;17.00;;;;;;;;;;5111822;28;20097;-77
2022/01/25 10:08:50;;;;;;;23.52;16.50;;;;;;;;;;5111832;28;20027;-78
2022/01/25 10:11:17;;;;;;;23.83;17.58;;;;;;;;;;5111645;28;20031;-75
2022/01/25 10:13:44;;;;;;;22.42;16.98;;;;;;;;;;5112190;28;20024;-75
2022/01/25 10:16:12;;;;;;;24.65;18.08;;;;;;;;;;5111944;28;20039;-83
2022/01/25 10:18:41;;;;;;;25.05;17.50;;;;;;;;;;5111628;28;20509;-77
2022/01/25 10:21:11;;;;;;;23.90;17.33;;;;;;;;;;5093155;28;20020;-72
2022/01/25 10:23:40;;;;;;;22.15;17.05;;;;;;;;;;5111615;28;20024;-73
2022/01/25 10:26:06;;;;;;;26.00;17.88;;;;;;;;;;5111770;28;20104;-77
2022/01/25 10:28:32;;;;;;;23.67;18.05;;;;;;;;;;5111398;28;20020;-83
2022/01/25 10:31:00;;;;;;;23.67;17.90;;;;;;;;;;5111757;28;20035;-73
2022/01/25 10:33:36;;;;;;;23.83;17.65;;;;;;;;;;5111362;28;20019;-77
2022/01/25 10:36:12;;;;;;;21.67;15.98;;;;;;;;;;5111788;28;20059;-80
2022/01/25 10:38:40;;;;;;;20.77;16.25;;;;;;;;;;5110402;28;20023;-74
2022/01/25 10:41:08;;;;;;;22.63;15.73;;;;;;;;;;5093260;28;20032;-74
2022/01/25 10:43:34;;;;;;;20.75;16.08;;;;;;;;;;5111113;28;20383;-73
2022/01/25 10:46:12;;;;;;;21.55;15.45;;;;;;;;;;5111506;28;20081;-79
2022/01/25 10:48:40;;;;;;;19.13;14.82;;;;;;;;;;5111208;28;20015;-75
2022/01/25 10:51:13;;;;;;;21.52;14.63;;;;;;;;;;5111035;28;20023;-74
2022/01/25 10:53:40;;;;;;;20.23;14.95;;;;;;;;;;5112419;28;20028;-74
2022/01/25 10:56:06;;;;;;;21.58;14.20;;;;;;;;;;5114093;28;20038;-73
2022/01/25 10:58:37;;;;;;;20.17;13.73;;;;;;;;;;5113667;28;20022;-73
2022/01/25 11:01:03;;;;;;;20.55;15.45;;;;;;;;;;5114002;28;20062;-75
2022/01/25 11:03:32;;;;;;;16.88;13.43;;;;;;;;;;5113491;28;20026;-73
2022/01/25 11:05:58;;;;;;;18.40;13.48;;;;;;;;;;5113633;28;20020;-73
2022/01/25 11:08:27;;;;;;;17.58;12.73;;;;;;;;;;5113360;28;20026;-73
2022/01/25 11:10:57;;;;;;;20.48;14.20;;;;;;;;;;5113665;28;20027;-73
2022/01/25 11:15:56;;;;;;;16.73;12.63;;;;;;;;;;5113927;28;20476;-71
2022/01/25 11:18:22;;;;;;;14.82;11.52;;;;;;;;;;5113311;28;20394;-72
2022/01/25 11:20:50;;;;;;;18.02;12.80;;;;;;;;;;5113436;28;20098;-74
2022/01/25 11:23:17;;;;;;;17.80;12.57;;;;;;;;;;5112773;28;20116;-77
2022/01/25 11:25:45;;;;;;;14.10;11.50;;;;;;;;;;5114290;28;20031;-80
2022/01/25 11:28:12;;;;;;;14.75;11.48;;;;;;;;;;5115046;28;20027;-81
2022/01/25 11:30:40;;;;;;;14.68;11.38;;;;;;;;;;5113819;28;20551;-82
2022/01/25 11:33:07;;;;;;;16.33;12.18;;;;;;;;;;5113536;28;20024;-77
2022/01/25 11:35:34;;;;;;;14.35;11.75;;;;;;;;;;5112799;28;20015;-79
2022/01/25 11:38:00;;;;;;;14.73;11.80;;;;;;;;;;5110647;28;20058;-73
2022/01/25 11:40:35;;;;;;;16.02;11.00;;;;;;;;;;5112370;28;20026;-73
2022/01/25 11:43:07;;;;;;;20.75;10.77;;;;;;;;;;5113484;28;20027;-74
2022/01/25 11:45:38;;;;;;;17.65;10.65;;;;;;;;;;5114152;28;20479;-73
2022/01/25 11:48:04;;;;;;;19.17;11.23;;;;;;;;;;5114434;28;20028;-73
2022/01/25 11:50:32;;;;;;;15.32;10.65;;;;;;;;;;5112892;28;20044;-74
2022/01/25 11:53:07;;;;;;;14.68;10.55;;;;;;;;;;5113522;28;20484;-72
2022/01/25 11:55:37;;;;;;;19.90;11.75;;;;;;;;;;5114133;28;20395;-80
2022/01/25 11:58:08;;;;;;;16.20;10.73;;;;;;;;;;5096413;28;20028;-82
2022/01/25 12:00:37;;;;;;;14.88;11.10;;;;;;;;;;5113834;28;20343;-82
2022/01/25 12:03:05;;;;;;;11.88;10.00;;;;;;;;;;5113767;28;20031;-84
2022/01/25 12:05:34;;;;;;;14.70;10.27;;;;;;;;;;5112400;28;20072;-79
2022/01/25 12:08:09;;;;;;;20.10;12.30;;;;;;;;;;5094806;28;20490;-76
2022/01/25 12:10:38;;;;;;;31.73;17.45;;;;;;;;;;5114048;28;20028;-84
2022/01/25 12:13:20;;;;;;;31.17;15.73;;;;;;;;;;5114531;28;20020;-79
2022/01/25 12:16:06;;;;;;;28.15;14.85;;;;;;;;;;5113477;28;20024;-77
2022/01/25 12:18:51;;;;;;;25.08;13.63;;;;;;;;;;5114668;27;20031;-78
2022/01/25 12:21:37;;;;;;;26.05;12.95;;;;;;;;;;5121577;28;20039;-76
2022/01/25 12:24:38;;;;;;;27.40;14.52;;;;;;;;;;5115019;28;20536;-79
2022/01/25 12:29:57;;;;;;;26.08;12.15;;;;;;;;;;5112404;28;20065;-75
2022/01/25 12:32:24;;;;;;;19.63;10.82;;;;;;;;;;5112796;28;20095;-79
2022/01/25 12:35:01;;;;;;;23.58;11.57;;;;;;;;;;5095404;28;20023;-83
2022/01/25 12:37:54;;;;;;;15.55;10.02;;;;;;;;;;5113739;28;20065;-82
2022/01/25 12:40:28;;;;;;;19.77;10.52;;;;;;;;;;5100743;28;20100;-81
2022/01/25 12:42:54;;;;;;;17.92;10.52;;;;;;;;;;5113894;28;20024;-75
2022/01/25 12:45:20;;;;;;;23.20;11.68;;;;;;;;;;5113156;28;20061;-78
2022/01/25 12:47:53;;;;;;;15.65;10.27;;;;;;;;;;5113314;28;20103;-77
2022/01/25 12:50:19;;;;;;;18.42;11.38;;;;;;;;;;5112017;28;20367;-76
2022/01/25 12:52:45;;;;;;;16.38;10.02;;;;;;;;;;5112399;28;20040;-83
2022/01/25 12:55:12;;;;;;;15.38;11.20;;;;;;;;;;5110887;27;20546;-74
2022/01/25 12:57:38;;;;;;;12.63;9.60;;;;;;;;;;5111746;28;20099;-72
2022/01/25 13:00:05;;;;;;;14.90;10.77;;;;;;;;;;5111730;28;20145;-73
2022/01/25 13:02:31;;;;;;;15.10;10.90;;;;;;;;;;5111414;28;20403;-82
2022/01/25 13:04:57;;;;;;;18.25;10.93;;;;;;;;;;5112886;28;20027;-78
2022/01/25 13:07:23;;;;;;;13.95;10.65;;;;;;;;;;5112309;28;20038;-79
2022/01/25 13:09:54;;;;;;;17.38;10.35;;;;;;;;;;5113043;28;20123;-73
2022/01/25 13:12:29;;;;;;;14.27;9.65;;;;;;;;;;5112955;28;20050;-75
2022/01/25 13:15:26;;;;;;;16.80;10.73;;;;;;;;;;5113068;28;20026;-76
2022/01/25 13:17:47;;;;;;;13.70;9.82;;;;;;;;;;5111205;28;20020;-73
2022/01/25 13:20:14;;;;;;;13.95;9.60;;;;;;;;;;5120085;27;20110;-73
2022/01/25 13:22:42;;;;;;;13.80;8.95;;;;;;;;;;5110297;27;20501;-77
2022/01/25 13:27:47;;;;;;;15.07;9.40;;;;;;;;;;5113992;27;20035;-73
2022/01/25 13:32:59;;;;;;;12.38;9.05;;;;;;;;;;5132888;27;20083;-72
2022/01/25 13:35:34;;;;;;;13.13;8.75;;;;;;;;;;5125090;27;20031;-72
2022/01/25 13:38:02;;;;;;;12.73;9.63;;;;;;;;;;5094069;28;20024;-72
2022/01/25 13:40:35;;;;;;;14.88;10.27;;;;;;;;;;5112129;28;20019;-72
2022/01/25 13:43:30;;;;;;;13.70;9.80;;;;;;;;;;5112204;28;20066;-82
2022/01/25 13:45:57;;;;;;;11.07;8.73;;;;;;;;;;5112169;28;20039;-73
2022/01/25 13:48:24;;;;;;;15.55;9.40;;;;;;;;;;5111748;28;20118;-73
2022/01/25 13:50:58;;;;;;;14.55;9.88;;;;;;;;;;5111700;28;20088;-76
2022/01/25 13:53:25;;;;;;;12.57;9.00;;;;;;;;;;5112063;28;20020;-74
2022/01/25 13:55:52;;;;;;;12.25;9.10;;;;;;;;;;5112015;28;20034;-72
2022/01/25 13:58:20;;;;;;;13.80;9.70;;;;;;;;;;5111734;28;20069;-72
2022/01/25 14:00:47;;;;;;;13.43;9.82;;;;;;;;;;5111834;28;20027;-72
2022/01/25 14:03:15;;;;;;;14.10;9.73;;;;;;;;;;5112186;28;20080;-72
2022/01/25 14:05:41;;;;;;;13.07;9.90;;;;;;;;;;5112316;28;20023;-76
2022/01/25 14:08:07;;;;;;;12.75;8.80;;;;;;;;;;5111922;28;20080;-80
2022/01/25 14:10:34;;;;;;;13.88;9.13;;;;;;;;;;5111708;28;20035;-79
2022/01/25 14:24:07;;;;;;;11.98;8.77;;;;;;;;;;5111805;28;20107;-72
2022/01/25 14:26:34;;;;;;;11.05;8.35;;;;;;;;;;5093212;28;20379;-72
2022/01/25 14:29:13;;;;;;;13.82;9.02;;;;;;;;;;5111083;28;20050;-72
2022/01/25 14:31:43;;;;;;;12.43;8.55;;;;;;;;;;5111892;28;20119;-77
2022/01/25 14:34:10;;;;;;;13.02;9.63;;;;;;;;;;5112959;28;20487;-78
2022/01/25 14:36:39;;;;;;;12.23;8.68;;;;;;;;;;5112952;28;20058;-78
2022/01/25 14:39:05;;;;;;;12.68;9.20;;;;;;;;;;5113075;28;20039;-81
2022/01/25 14:41:32;;;;;;;14.85;9.82;;;;;;;;;;5113150;28;20039;-80
2022/01/25 14:44:04;;;;;;;11.30;8.65;;;;;;;;;;5112822;28;20027;-81
2022/01/25 14:46:33;;;;;;;14.10;9.93;;;;;;;;;;5112738;28;20494;-80
2022/01/25 14:49:00;;;;;;;12.05;8.60;;;;;;;;;;5112741;28;20114;-79
2022/01/25 14:51:33;;;;;;;14.57;9.23;;;;;;;;;;5116060;28;20105;-78
2022/01/25 14:53:59;;;;;;;16.52;9.38;;;;;;;;;;5118769;28;20035;-71
2022/01/25 14:56:29;;;;;;;13.20;9.13;;;;;;;;;;5129189;28;20016;-81
2022/01/25 15:01:21;;;;;;;13.95;9.18;;;;;;;;;;5125277;28;20035;-75
2022/01/25 15:03:49;;;;;;;12.45;9.57;;;;;;;;;;5132191;28;20020;-72
2022/01/25 15:06:16;;;;;;;13.95;9.52;;;;;;;;;;5113761;28;20027;-82
2022/01/25 15:09:01;;;;;;;14.70;9.75;;;;;;;;;;5132500;28;20055;-78
2022/01/25 15:11:30;;;;;;;13.63;9.40;;;;;;;;;;5131771;28;20019;-76
2022/01/25 15:14:04;;;;;;;13.50;9.60;;;;;;;;;;5130360;28;20039;-76
2022/01/25 15:16:30;;;;;;;13.13;9.45;;;;;;;;;;5112702;28;20465;-73
2022/01/25 15:18:56;;;;;;;13.20;9.73;;;;;;;;;;5115291;28;20024;-73
2022/01/25 15:21:22;;;;;;;15.55;9.55;;;;;;;;;;5109305;28;20088;-73
2022/01/25 15:23:50;;;;;;;13.18;9.32;;;;;;;;;;5092255;28;20433;-79
2022/01/25 15:26:17;;;;;;;13.07;9.60;;;;;;;;;;5110213;28;20030;-72
2022/01/25 15:28:47;;;;;;;14.60;9.90;;;;;;;;;;5111413;28;20153;-71
2022/01/25 15:31:17;;;;;;;13.00;9.15;;;;;;;;;;5111557;28;20028;-71
2022/01/25 15:33:44;;;;;;;14.43;9.95;;;;;;;;;;5093045;28;20042;-73
2022/01/25 15:36:14;;;;;;;14.85;10.65;;;;;;;;;;5093006;28;20399;-76
2022/01/25 15:38:40;;;;;;;14.45;9.45;;;;;;;;;;5111357;28;20028;-76
2022/01/25 15:41:11;;;;;;;15.75;9.70;;;;;;;;;;5113932;28;20016;-73
2022/01/25 15:43:46;;;;;;;14.70;8.98;;;;;;;;;;5113877;28;20044;-76
2022/01/25 15:46:22;;;;;;;14.10;9.07;;;;;;;;;;5114946;28;20030;-74
2022/01/25 15:48:48;;;;;;;13.55;9.02;;;;;;;;;;5114412;28;20027;-72
2022/01/25 15:51:14;;;;;;;13.73;9.43;;;;;;;;;;5113364;28;20107;-72
2022/01/25 15:53:41;;;;;;;14.43;9.88;;;;;;;;;;5095961;28;20028;-74
2022/01/25 15:56:07;;;;;;;16.95;10.00;;;;;;;;;;5096030;28;20027;-76
2022/01/25 15:58:33;;;;;;;13.75;9.00;;;;;;;;;;5114036;28;20024;-74
2022/01/25 16:00:59;;;;;;;15.00;9.02;;;;;;;;;;5114311;28;20030;-79
2022/01/25 16:03:27;;;;;;;15.63;10.05;;;;;;;;;;5114070;28;20023;-73
2022/01/25 16:05:53;;;;;;;12.48;9.15;;;;;;;;;;5114302;28;20103;-73
2022/01/25 16:08:19;;;;;;;14.02;9.80;;;;;;;;;;5113763;28;20045;-74
2022/01/25 16:10:46;;;;;;;15.27;9.50;;;;;;;;;;5114022;28;20084;-72
2022/01/25 16:13:13;;;;;;;14.88;9.60;;;;;;;;;;5114329;28;20016;-72
2022/01/25 16:15:40;;;;;;;13.50;9.35;;;;;;;;;;5114125;28;20027;-72
2022/01/25 16:18:06;;;;;;;17.02;10.27;;;;;;;;;;5095621;28;20020;-73
2022/01/25 16:20:33;;;;;;;14.23;9.77;;;;;;;;;;5112539;28;20032;-72
2022/01/25 16:23:00;;;;;;;13.88;8.90;;;;;;;;;;5112706;28;20016;-73
2022/01/25 16:25:26;;;;;;;13.57;8.82;;;;;;;;;;5094680;27;20039;-76
2022/01/25 16:27:52;;;;;;;13.65;9.32;;;;;;;;;;5113448;27;20028;-71
2022/01/25 16:30:19;;;;;;;17.92;9.60;;;;;;;;;;5093530;28;20106;-73
2022/01/25 16:32:46;;;;;;;13.40;9.43;;;;;;;;;;5112726;28;20028;-78
2022/01/25 16:35:13;;;;;;;14.00;9.68;;;;;;;;;;5113745;28;20111;-72
2022/01/25 16:37:40;;;;;;;13.13;9.07;;;;;;;;;;5113982;28;20020;-72